• Join FlightAware (Why Join?)
  • Login
  • US Flag 
11:00PM EDT


 

Airport Tracker/Info


-or-


 

Live Flight TrackerFlight Track Log ✈ UCA4794 ✈ 02-Feb-2014 ✈ KSYR - KEWR

Flight Track Log - Related Links

Times and Time Zones

All times are in EST time to prevent confusion due to time zone crossing. See the UCA4794 flight status page for this flight to view local times or setup timezone preferences in your user account.

Time Position Orientation Groundspeed Altitude Reporting Facility
EST Latitude Longitude Course Direction KTS MPH feet Rate Location/Type
01:31PM 43.1078 -76.1189 262° West 107 123 1,200  Level Boston Center
01:31PM 43.1075 -76.1217 262° West 96 110 1,400 1,320 Climbing Boston Center
01:32PM 43.0883 -76.1581 234° Southwest 173 199 2,700 1,320 Climbing Boston Center
01:33PM 43.0492 -76.1131 140° Southeast 184 212 4,100 1,440 Climbing Boston Center
01:34PM 43.0092 -76.0647 139° Southeast 188 216 5,700 1,680 Climbing Boston Center
01:35PM 42.9681 -76.0164 139° Southeast 193 222 7,600 1,680 Climbing Boston Center
01:36PM 42.9297 -75.9692 138° Southeast 189 217 9,100 1,380 Climbing Boston Center
01:37PM 42.8878 -75.9250 142° Southeast 191 220 10,400 1,140 Climbing Boston Center
01:38PM 42.8389 -75.8783 145° Southeast 211 243 11,400 1,140 Climbing Boston Center
01:39PM 42.7897 -75.8286 143° Southeast 220 253 12,700 1,200 Climbing Boston Center
01:40PM 42.7361 -75.7894 152° Southeast 220 253 13,900 1,080 Climbing Boston Center
01:41PM 42.6725 -75.7461 153° Southeast 215 247 15,000 540 Climbing Boston Center
01:42PM 42.6111 -75.7022 152° Southeast 246 283 15,000  Level Boston Center
01:43PM 42.5444 -75.6556 153° Southeast 267 307 15,000  Level Boston Center
01:44PM 42.4789 -75.6083 152° Southeast 268 308 15,000  Level Boston Center
01:45PM 42.4139 -75.5611 152° Southeast 266 306 15,000  Level Boston Center
01:46PM 42.3489 -75.5156 153° Southeast 265 305 15,000 -180 Level Boston Center
01:47PM 42.2883 -75.4742 153° Southeast 263 303 14,700 -720 Descending Boston Center
01:48PM 42.2192 -75.4267 153° Southeast 271 312 13,600 -840 Descending Boston Center
01:49PM 42.1372 -75.3692 153° Southeast 277 319 13,000 -300 Descending Boston Center
01:50PM 42.0733 -75.3233 152° Southeast 267 307 13,000  Level Boston Center
01:51PM 42.0300 -75.2325 123° Southeast 293 337 13,000  Level Boston Center
01:52PM 41.9942 -75.1325 116° Southeast 299 344 13,000  Level Boston Center
01:53PM 41.9519 -75.0225 117° Southeast 305 351 13,000 -240 Level Boston Center
01:54PM 41.9136 -74.9228 117° Southeast 303 349 12,600 -660 Descending Boston Center
01:55PM 41.8728 -74.8147 117° Southeast 322 371 11,700 -960 Descending Boston Center
01:56PM 41.8317 -74.7056 117° Southeast 328 377 10,700 -1,080 Descending Boston Center
01:57PM 41.7878 -74.5928 118° Southeast 318 366 9,600 -1,140 Descending Boston Center
01:58PM 41.7300 -74.5411 146° Southeast 257 296 8,500 -960 Descending Boston Center
01:59PM 41.6642 -74.5461 183° South 239 275 7,600 -960 Descending Boston Center
02:00PM 41.5958 -74.5578 187° South 246 283 6,600 -840 Descending Boston Center
02:01PM 41.5222 -74.5711 188° South 249 287 6,000 -300 Descending Boston Center
02:02PM 41.4572 -74.5839 188° South 239 275 6,000  Level Boston Center
02:03PM 41.3919 -74.5978 189° South 237 273 6,000  Level Boston Center
02:04PM 41.3261 -74.6244 197° South 232 267 6,000 -300 Level Boston Center
02:05PM 41.2614 -74.6183 176° South 257 296 5,500 -540 Descending Boston Center
02:06PM 41.1983 -74.5678 149° Southeast 265 305 5,000 -240 Descending Boston Center
02:08PM 41.1333 -74.4667 130° Southeast 263 303 5,000  Level New York TRACON
02:09PM 41.0833 -74.4000 135° Southeast 260 299 5,000  Level New York TRACON
02:09PM 41.0333 -74.3333 135° Southeast 261 300 5,000  Level New York TRACON
02:10PM 41.0000 -74.2667 124° Southeast 254 292 5,000 -180 Level New York TRACON
02:11PM 40.9500 -74.2000 135° Southeast 221 254 4,700 -540 Descending New York TRACON
02:12PM 40.9167 -74.1500 131° Southeast 212 244 4,000 -540 Descending New York TRACON
02:13PM 40.8667 -74.1000 143° Southeast 210 242 3,700 -660 Descending New York TRACON
02:14PM 40.8167 -74.1000 180° South 180 207 2,700 -960 Descending New York TRACON
02:15PM 40.7833 -74.1167 201° Southwest 169 194 1,900 -900 Descending New York TRACON
02:16PM 40.7333 -74.1333 194° South 158 182 1,000 -900 Descending New York TRACON
02:18PM 40.6833 -74.1667 166° South  Level FlightAware Approximate
02:25PM 40.6925 -74.1687 166° South  Level Estimated